Helsinki, Finland

1:02 AM EEST op 30 september 2016 (GMT +0300)
Vantaa | | Change Station

Hoogte 184 ft 60.32 °N, 24.96 °E | Updated 12 minutes ago

Mostly Cloudy
Merendeels bewolkt
59 °F
Voelt als 59 °F
N
20
Wind Variabel Wind van ZZW

Vandaag
Hoog -- | Laag -- °F
--% Kans op neerslag
Gisteren
Hoog -- | Laag -- °F
Precip. -- inches
Druk 29.18 inches
Zicht 6.2 mijlen
Wolken Gering 1500 ft
Merendeels bewolkt 2000 ft
Merendeels bewolkt 7000 ft
Dauwpunt 55 °F
Vochtigheid 88%
Neerslag 0.00 inches
Dikte sneeuw Niet beschikbaar.
7:24 AM 6:54 PM
Afnemende halvemaan, 1% visible
METAR EFHK 292150Z 21017KT 9999 FEW015 BKN020 BKN070 15/13 Q0988 NOSIG
Druk 29.18 inches
Zicht 6.2 mijlen
Wolken Gering 1500 ft
Merendeels bewolkt 2000 ft
Merendeels bewolkt 7000 ft
Dauwpunt 55 °F
Vochtigheid 88%
Neerslag 0.00 inches
Dikte sneeuw Niet beschikbaar.
7:24 AM 6:54 PM
Afnemende halvemaan, 1% visible
METAR EFHK 292150Z 21017KT 9999 FEW015 BKN020 BKN070 15/13 Q0988 NOSIG

10-Day Weather Forecast

×

Almanac

Astronomie

Sep. 30, 2016 Opkomst Ondergang
Werkelijke tijd
Burgerlijke schemering
Nautische schemering
Astronomische schemering
Maan
Golflengte van het zichtbare licht
Daglengte
Tomorrow will be .
, % of the Moon is Illuminated

Extremen vandaag

Country Highs Country Lows

Community

WunderPhotos

Upload Photos

1,942,584 foto’s ge-upload!

WunderBlog® & News

Nearby

Luchtkwaliteit

  Luchtkwaliteit LK-index Verontreinigende stof
Not available.

Dikte sneeuw

Station Depth Geometrische hoogte

Aardbevingen

Stad Distance Mag. Time & Date
Minimum magnitude displayed is 2.5.

Watertemperatuur langs de kust

Plaats Temperatuur

Stations

Nabije weerstations

Locatie station Temp. Gevoelstemperatuur Dauwpunt Vochtigheid Wind Precip. Hoogte Geactualiseerd Type